Main page
METAR-TAF:

METAR-TAF

Airports :

Guernsey Airport

Guernsey,

latitude: 49-26N, longitude: 002-36W, elevation: 102 m

Current weather observation

The report was made 32 minutes ago, at 16:50 UTC
Wind 10 kt from the North/Northwest
Temperature 20°C
Humidity 60%
Pressure 1017 hPa
Visibility 10 km or more
no clouds below 1500 m and no cumulonimbus

METAR: EGJB 191650Z 34010KT CAVOK 20/12 Q1017

Time: 18:22 (17:22 UTC)

Forecast

The report was made 3 hours and 17 minutes ago, at 14:05 UTC
Forecast valid from 19 at 15 UTC to 19 at 24 UTC
Wind 10 kt from the North
Visibility 10 km or more
no clouds below 1500 m and no cumulonimbus

TAF: EGJB 191405Z 1915/1924 35010KT CAVOK

Weather observations and forecasts of more than 4000 airports (METAR and TAF reports).

The available stations are represented by yellow and red dots on the map.

Hover mouse over dot to see the name of the station.

Then click to see weather observations and forecasts.

To change the map : click on the green buttons with a black cross to zoom in, on the green button with a dash to zoom out, or on the green arrows for adjacent maps.


METAR-TAF: